プンタアレナス の空港の天気 - METARとTAF

プンタアレナス空港 ( SCCI / PUQ ) - チリ プンタアレナス
飛行場実況気象(Metar)
観測時間10/20 01:00 CLST (10/20 04:00 UTC)
風向・風速西 6m/s
視程10km以上
天気現象
なし
気温11℃
湿度50%
気圧993hPa
METARSCCI 200400Z 27011KT CAVOK 11/01 Q0993 NOSIG
過去の天気等 Google飛行場航空写真 Wunderground天気予報

過去48時間のMETAR

飛行場予報(TAF)
発表時間: 10/19 19:21 CLST (10/19 22:21 UTC)
予報対象時間: 19日21時 CLST ~ 20日21時 CLST
風向・風速西北西 9m/s
視程10km以上
少しの雲 雲底高度 1220m
全天の4割程度の雲 雲底高度 1830m
20日3時 CLST ~ 20日9時 CLST に一時的に
風向・風速北西 10m/s 瞬間風速 15m/s
20日9時 CLST ~ 20日18時 CLST に一時的に
視程8000m
天気現象弱いしゅう雨
全天の4割程度の雲 雲底高度 610m
全天の8割程度の雲 雲底高度 1220m
20日10時 CLST ~ 20日12時 CLST に徐々に
風向・風速西 6m/s
TAF SCCI 192221Z 2000/2100 29018KT 9999 FEW040 SCT060 TN06/2006Z TX13/2018Z
TEMPO 2006/2012 32020G30KT
TEMPO 2012/2021 8000 -SHRA SCT020 BKN040
BECMG 2013/2015 28012KT